sensor_id;sensor_type;location;lat;lon;timestamp;temperature;humidity
68354;DHT22;55274;43.060;25.618;2023-08-06T00:01:50;26.20;75.80
68354;DHT22;55274;43.060;25.618;2023-08-06T00:04:15;26.20;75.50
68354;DHT22;55274;43.060;25.618;2023-08-06T00:06:41;26.20;75.40
68354;DHT22;55274;43.060;25.618;2023-08-06T00:09:07;26.20;76.20
68354;DHT22;55274;43.060;25.618;2023-08-06T00:11:33;26.20;76.30
68354;DHT22;55274;43.060;25.618;2023-08-06T00:13:59;26.20;76.00
68354;DHT22;55274;43.060;25.618;2023-08-06T00:16:25;26.20;76.20
68354;DHT22;55274;43.060;25.618;2023-08-06T00:18:51;26.20;75.60
68354;DHT22;55274;43.060;25.618;2023-08-06T00:21:16;26.30;75.90
68354;DHT22;55274;43.060;25.618;2023-08-06T00:23:42;26.20;76.70
68354;DHT22;55274;43.060;25.618;2023-08-06T00:26:08;26.20;76.60
68354;DHT22;55274;43.060;25.618;2023-08-06T00:28:34;26.20;76.10
68354;DHT22;55274;43.060;25.618;2023-08-06T00:30:59;26.10;76.80
68354;DHT22;55274;43.060;25.618;2023-08-06T00:33:25;26.00;75.50
68354;DHT22;55274;43.060;25.618;2023-08-06T00:35:51;26.00;74.80
68354;DHT22;55274;43.060;25.618;2023-08-06T00:38:17;25.90;74.10
68354;DHT22;55274;43.060;25.618;2023-08-06T00:40:42;25.90;73.50
68354;DHT22;55274;43.060;25.618;2023-08-06T00:43:09;25.90;73.10
68354;DHT22;55274;43.060;25.618;2023-08-06T00:45:37;25.80;72.90
68354;DHT22;55274;43.060;25.618;2023-08-06T00:48:04;25.70;73.50
68354;DHT22;55274;43.060;25.618;2023-08-06T00:50:30;25.50;73.60
68354;DHT22;55274;43.060;25.618;2023-08-06T00:52:56;25.40;73.50
68354;DHT22;55274;43.060;25.618;2023-08-06T00:55:23;25.30;73.60
68354;DHT22;55274;43.060;25.618;2023-08-06T00:57:49;25.30;74.20
68354;DHT22;55274;43.060;25.618;2023-08-06T01:00:16;25.10;74.80
68354;DHT22;55274;43.060;25.618;2023-08-06T01:02:42;25.10;75.00
68354;DHT22;55274;43.060;25.618;2023-08-06T01:05:08;25.10;74.40
68354;DHT22;55274;43.060;25.618;2023-08-06T01:07:57;25.00;74.50
68354;DHT22;55274;43.060;25.618;2023-08-06T01:15:55;25.00;73.50
68354;DHT22;55274;43.060;25.618;2023-08-06T01:18:25;25.00;74.00
68354;DHT22;55274;43.060;25.618;2023-08-06T01:20:51;25.00;73.30
68354;DHT22;55274;43.060;25.618;2023-08-06T01:23:18;25.00;73.10
68354;DHT22;55274;43.060;25.618;2023-08-06T01:29:06;24.90;72.40
68354;DHT22;55274;43.060;25.618;2023-08-06T01:31:41;24.80;72.50
68354;DHT22;55274;43.060;25.618;2023-08-06T01:34:17;24.80;72.40
68354;DHT22;55274;43.060;25.618;2023-08-06T01:36:43;24.70;72.60
68354;DHT22;55274;43.060;25.618;2023-08-06T01:39:10;24.60;72.40
68354;DHT22;55274;43.060;25.618;2023-08-06T01:41:35;24.60;73.30
68354;DHT22;55274;43.060;25.618;2023-08-06T01:44:01;24.60;75.10
68354;DHT22;55274;43.060;25.618;2023-08-06T01:46:27;24.50;75.50
68354;DHT22;55274;43.060;25.618;2023-08-06T01:48:53;24.50;75.50
68354;DHT22;55274;43.060;25.618;2023-08-06T01:51:18;24.40;76.40
68354;DHT22;55274;43.060;25.618;2023-08-06T01:53:44;24.40;75.90
68354;DHT22;55274;43.060;25.618;2023-08-06T01:56:10;24.30;76.00
68354;DHT22;55274;43.060;25.618;2023-08-06T01:58:36;24.20;77.20
68354;DHT22;55274;43.060;25.618;2023-08-06T02:01:02;24.20;77.70
68354;DHT22;55274;43.060;25.618;2023-08-06T02:03:27;24.10;78.00
68354;DHT22;55274;43.060;25.618;2023-08-06T02:05:53;24.00;77.80
68354;DHT22;55274;43.060;25.618;2023-08-06T02:08:19;23.90;77.50
68354;DHT22;55274;43.060;25.618;2023-08-06T02:10:45;23.90;77.30
68354;DHT22;55274;43.060;25.618;2023-08-06T02:13:11;23.80;78.00
68354;DHT22;55274;43.060;25.618;2023-08-06T02:15:43;23.70;78.60
68354;DHT22;55274;43.060;25.618;2023-08-06T02:18:09;23.70;78.50
68354;DHT22;55274;43.060;25.618;2023-08-06T02:20:35;23.70;77.70
68354;DHT22;55274;43.060;25.618;2023-08-06T02:23:00;23.70;78.10
68354;DHT22;55274;43.060;25.618;2023-08-06T02:25:26;23.70;78.20
68354;DHT22;55274;43.060;25.618;2023-08-06T02:27:52;23.60;78.10
68354;DHT22;55274;43.060;25.618;2023-08-06T02:30:18;23.60;77.40
68354;DHT22;55274;43.060;25.618;2023-08-06T02:32:44;23.60;77.20
68354;DHT22;55274;43.060;25.618;2023-08-06T02:35:09;23.60;77.80
68354;DHT22;55274;43.060;25.618;2023-08-06T02:37:35;23.50;78.80
68354;DHT22;55274;43.060;25.618;2023-08-06T02:40:01;23.40;79.10
68354;DHT22;55274;43.060;25.618;2023-08-06T02:42:27;23.30;79.40
68354;DHT22;55274;43.060;25.618;2023-08-06T02:44:53;23.20;79.40
68354;DHT22;55274;43.060;25.618;2023-08-06T02:47:22;23.30;79.30
68354;DHT22;55274;43.060;25.618;2023-08-06T02:49:48;23.30;79.00
68354;DHT22;55274;43.060;25.618;2023-08-06T02:52:13;23.30;78.70
68354;DHT22;55274;43.060;25.618;2023-08-06T02:54:39;23.30;79.60
68354;DHT22;55274;43.060;25.618;2023-08-06T02:57:05;23.20;79.60
68354;DHT22;55274;43.060;25.618;2023-08-06T02:59:33;23.20;79.70
68354;DHT22;55274;43.060;25.618;2023-08-06T03:01:58;23.20;80.10
68354;DHT22;55274;43.060;25.618;2023-08-06T03:04:24;23.10;80.60
68354;DHT22;55274;43.060;25.618;2023-08-06T03:06:50;23.00;80.70
68354;DHT22;55274;43.060;25.618;2023-08-06T03:09:17;23.00;80.90
68354;DHT22;55274;43.060;25.618;2023-08-06T03:11:43;23.00;80.70
68354;DHT22;55274;43.060;25.618;2023-08-06T03:14:08;23.00;81.00
68354;DHT22;55274;43.060;25.618;2023-08-06T03:16:35;22.90;80.30
68354;DHT22;55274;43.060;25.618;2023-08-06T03:19:00;22.90;80.50
68354;DHT22;55274;43.060;25.618;2023-08-06T03:21:26;23.00;81.20
68354;DHT22;55274;43.060;25.618;2023-08-06T03:23:52;23.00;81.50
68354;DHT22;55274;43.060;25.618;2023-08-06T03:26:18;22.90;81.70
68354;DHT22;55274;43.060;25.618;2023-08-06T03:28:44;22.90;80.60
68354;DHT22;55274;43.060;25.618;2023-08-06T03:31:09;22.90;80.90
68354;DHT22;55274;43.060;25.618;2023-08-06T03:33:35;22.80;81.30
68354;DHT22;55274;43.060;25.618;2023-08-06T03:36:02;22.90;80.90
68354;DHT22;55274;43.060;25.618;2023-08-06T03:38:27;22.90;81.50
68354;DHT22;55274;43.060;25.618;2023-08-06T03:40:53;22.90;81.70
68354;DHT22;55274;43.060;25.618;2023-08-06T03:43:19;22.90;81.70
68354;DHT22;55274;43.060;25.618;2023-08-06T03:45:45;23.00;81.70
68354;DHT22;55274;43.060;25.618;2023-08-06T03:48:11;23.00;80.80
68354;DHT22;55274;43.060;25.618;2023-08-06T03:50:36;23.10;81.00
68354;DHT22;55274;43.060;25.618;2023-08-06T03:53:03;23.10;80.60
68354;DHT22;55274;43.060;25.618;2023-08-06T03:55:29;23.20;80.90
68354;DHT22;55274;43.060;25.618;2023-08-06T03:57:55;23.10;81.00
68354;DHT22;55274;43.060;25.618;2023-08-06T04:00:20;23.10;81.10
68354;DHT22;55274;43.060;25.618;2023-08-06T04:02:46;23.10;81.20
68354;DHT22;55274;43.060;25.618;2023-08-06T04:05:12;23.10;81.30
68354;DHT22;55274;43.060;25.618;2023-08-06T04:07:38;23.20;79.80
68354;DHT22;55274;43.060;25.618;2023-08-06T04:10:04;23.20;79.90
68354;DHT22;55274;43.060;25.618;2023-08-06T04:12:31;23.30;79.90
68354;DHT22;55274;43.060;25.618;2023-08-06T04:14:59;23.40;80.40
68354;DHT22;55274;43.060;25.618;2023-08-06T04:17:25;23.50;80.80
68354;DHT22;55274;43.060;25.618;2023-08-06T04:19:53;23.50;80.10
68354;DHT22;55274;43.060;25.618;2023-08-06T04:22:19;23.60;80.70
68354;DHT22;55274;43.060;25.618;2023-08-06T04:24:45;23.70;80.80
68354;DHT22;55274;43.060;25.618;2023-08-06T04:27:12;23.70;81.00
68354;DHT22;55274;43.060;25.618;2023-08-06T04:29:38;23.70;81.10
68354;DHT22;55274;43.060;25.618;2023-08-06T04:32:06;23.90;80.80
68354;DHT22;55274;43.060;25.618;2023-08-06T04:34:32;24.40;79.90
68354;DHT22;55274;43.060;25.618;2023-08-06T04:36:59;25.00;78.30
68354;DHT22;55274;43.060;25.618;2023-08-06T04:39:25;25.40;76.20
68354;DHT22;55274;43.060;25.618;2023-08-06T04:41:50;26.00;74.60
68354;DHT22;55274;43.060;25.618;2023-08-06T04:44:16;26.40;71.50
68354;DHT22;55274;43.060;25.618;2023-08-06T04:46:42;26.80;69.60
68354;DHT22;55274;43.060;25.618;2023-08-06T04:49:08;27.10;68.60
68354;DHT22;55274;43.060;25.618;2023-08-06T04:51:34;27.30;66.00
68354;DHT22;55274;43.060;25.618;2023-08-06T04:53:59;27.30;65.60
68354;DHT22;55274;43.060;25.618;2023-08-06T04:56:25;27.10;64.90
68354;DHT22;55274;43.060;25.618;2023-08-06T04:58:51;27.10;65.30
68354;DHT22;55274;43.060;25.618;2023-08-06T05:01:17;27.10;64.30
68354;DHT22;55274;43.060;25.618;2023-08-06T05:03:42;27.00;65.30
68354;DHT22;55274;43.060;25.618;2023-08-06T05:06:08;27.20;65.60
68354;DHT22;55274;43.060;25.618;2023-08-06T05:08:34;27.30;65.60
68354;DHT22;55274;43.060;25.618;2023-08-06T05:11:00;27.60;64.70
68354;DHT22;55274;43.060;25.618;2023-08-06T05:13:26;28.20;61.30
68354;DHT22;55274;43.060;25.618;2023-08-06T05:15:53;28.50;60.90
68354;DHT22;55274;43.060;25.618;2023-08-06T05:18:19;28.70;59.00
68354;DHT22;55274;43.060;25.618;2023-08-06T05:20:45;28.90;59.40
68354;DHT22;55274;43.060;25.618;2023-08-06T05:23:11;29.00;59.00
68354;DHT22;55274;43.060;25.618;2023-08-06T05:25:37;29.60;57.10
68354;DHT22;55274;43.060;25.618;2023-08-06T05:28:03;30.00;56.10
68354;DHT22;55274;43.060;25.618;2023-08-06T05:30:29;30.20;55.40
68354;DHT22;55274;43.060;25.618;2023-08-06T05:32:55;30.60;53.90
68354;DHT22;55274;43.060;25.618;2023-08-06T05:35:22;31.00;53.40
68354;DHT22;55274;43.060;25.618;2023-08-06T05:37:48;30.80;53.20
68354;DHT22;55274;43.060;25.618;2023-08-06T05:40:14;30.90;52.90
68354;DHT22;55274;43.060;25.618;2023-08-06T05:42:40;31.00;53.00
68354;DHT22;55274;43.060;25.618;2023-08-06T05:45:07;30.80;52.80
68354;DHT22;55274;43.060;25.618;2023-08-06T05:47:33;30.80;52.80
68354;DHT22;55274;43.060;25.618;2023-08-06T05:49:59;31.10;52.80
68354;DHT22;55274;43.060;25.618;2023-08-06T05:52:24;31.30;52.40
68354;DHT22;55274;43.060;25.618;2023-08-06T05:54:50;31.80;51.20
68354;DHT22;55274;43.060;25.618;2023-08-06T05:57:16;31.70;50.90
68354;DHT22;55274;43.060;25.618;2023-08-06T05:59:42;31.40;51.50
68354;DHT22;55274;43.060;25.618;2023-08-06T06:02:08;31.20;51.30
68354;DHT22;55274;43.060;25.618;2023-08-06T06:04:34;30.80;52.40
68354;DHT22;55274;43.060;25.618;2023-08-06T06:07:00;30.80;53.30
68354;DHT22;55274;43.060;25.618;2023-08-06T06:09:25;30.80;52.30
68354;DHT22;55274;43.060;25.618;2023-08-06T06:11:51;30.30;53.30
68354;DHT22;55274;43.060;25.618;2023-08-06T06:14:18;30.30;54.00
68354;DHT22;55274;43.060;25.618;2023-08-06T06:16:44;30.40;53.80
68354;DHT22;55274;43.060;25.618;2023-08-06T06:19:10;30.40;53.40
68354;DHT22;55274;43.060;25.618;2023-08-06T06:21:36;30.50;53.80
68354;DHT22;55274;43.060;25.618;2023-08-06T06:24:03;30.40;54.70
68354;DHT22;55274;43.060;25.618;2023-08-06T06:26:30;30.40;54.40
68354;DHT22;55274;43.060;25.618;2023-08-06T06:28:55;30.50;53.80
68354;DHT22;55274;43.060;25.618;2023-08-06T06:31:21;30.40;53.40
68354;DHT22;55274;43.060;25.618;2023-08-06T06:33:47;30.30;54.00
68354;DHT22;55274;43.060;25.618;2023-08-06T06:36:13;30.10;54.20
68354;DHT22;55274;43.060;25.618;2023-08-06T06:38:38;30.20;54.40
68354;DHT22;55274;43.060;25.618;2023-08-06T06:41:04;30.20;54.00
68354;DHT22;55274;43.060;25.618;2023-08-06T06:43:30;30.20;54.60
68354;DHT22;55274;43.060;25.618;2023-08-06T06:46:00;30.30;54.50
68354;DHT22;55274;43.060;25.618;2023-08-06T06:48:28;30.50;54.30
68354;DHT22;55274;43.060;25.618;2023-08-06T06:50:53;30.60;53.40
68354;DHT22;55274;43.060;25.618;2023-08-06T06:53:19;30.20;53.50
68354;DHT22;55274;43.060;25.618;2023-08-06T06:55:45;30.10;53.70
68354;DHT22;55274;43.060;25.618;2023-08-06T06:58:15;29.90;54.10
68354;DHT22;55274;43.060;25.618;2023-08-06T07:00:41;29.90;54.00
68354;DHT22;55274;43.060;25.618;2023-08-06T07:03:07;29.80;54.20
68354;DHT22;55274;43.060;25.618;2023-08-06T07:05:33;29.60;54.60
68354;DHT22;55274;43.060;25.618;2023-08-06T07:07:59;29.60;55.30
68354;DHT22;55274;43.060;25.618;2023-08-06T07:10:26;29.80;54.80
68354;DHT22;55274;43.060;25.618;2023-08-06T07:12:51;29.90;55.10
68354;DHT22;55274;43.060;25.618;2023-08-06T07:15:17;30.10;55.00
68354;DHT22;55274;43.060;25.618;2023-08-06T07:17:43;30.30;54.40
68354;DHT22;55274;43.060;25.618;2023-08-06T07:20:09;30.30;54.40
68354;DHT22;55274;43.060;25.618;2023-08-06T07:22:35;30.20;54.40
68354;DHT22;55274;43.060;25.618;2023-08-06T07:25:01;30.20;55.50
68354;DHT22;55274;43.060;25.618;2023-08-06T07:27:27;30.10;55.10
68354;DHT22;55274;43.060;25.618;2023-08-06T07:29:53;29.90;55.40
68354;DHT22;55274;43.060;25.618;2023-08-06T07:32:19;29.70;56.30
68354;DHT22;55274;43.060;25.618;2023-08-06T07:34:44;29.70;56.30
68354;DHT22;55274;43.060;25.618;2023-08-06T07:37:10;29.70;56.70
68354;DHT22;55274;43.060;25.618;2023-08-06T07:39:36;29.50;56.90
68354;DHT22;55274;43.060;25.618;2023-08-06T07:42:03;29.40;57.50
68354;DHT22;55274;43.060;25.618;2023-08-06T07:44:31;29.20;57.90
68354;DHT22;55274;43.060;25.618;2023-08-06T07:46:57;29.00;58.60
68354;DHT22;55274;43.060;25.618;2023-08-06T07:49:22;28.90;58.30
68354;DHT22;55274;43.060;25.618;2023-08-06T07:51:48;28.80;59.00
68354;DHT22;55274;43.060;25.618;2023-08-06T07:54:14;28.70;59.90
68354;DHT22;55274;43.060;25.618;2023-08-06T07:56:40;28.60;60.70
68354;DHT22;55274;43.060;25.618;2023-08-06T07:59:06;28.50;61.10
68354;DHT22;55274;43.060;25.618;2023-08-06T08:01:31;28.40;60.80
68354;DHT22;55274;43.060;25.618;2023-08-06T08:03:57;28.40;61.40
68354;DHT22;55274;43.060;25.618;2023-08-06T08:06:23;28.30;62.10
68354;DHT22;55274;43.060;25.618;2023-08-06T08:08:49;28.20;62.00
68354;DHT22;55274;43.060;25.618;2023-08-06T08:11:14;28.20;62.10
68354;DHT22;55274;43.060;25.618;2023-08-06T08:13:41;28.20;62.20
68354;DHT22;55274;43.060;25.618;2023-08-06T08:16:07;28.10;63.10
68354;DHT22;55274;43.060;25.618;2023-08-06T08:18:33;28.00;64.90
68354;DHT22;55274;43.060;25.618;2023-08-06T08:20:59;28.00;64.20
68354;DHT22;55274;43.060;25.618;2023-08-06T08:23:25;27.90;64.00
68354;DHT22;55274;43.060;25.618;2023-08-06T08:25:50;27.80;64.50
68354;DHT22;55274;43.060;25.618;2023-08-06T08:28:16;27.80;65.10
68354;DHT22;55274;43.060;25.618;2023-08-06T08:30:42;27.70;67.60
68354;DHT22;55274;43.060;25.618;2023-08-06T08:33:08;27.60;68.30
68354;DHT22;55274;43.060;25.618;2023-08-06T08:35:34;27.30;71.10
68354;DHT22;55274;43.060;25.618;2023-08-06T08:38:01;27.10;73.40
68354;DHT22;55274;43.060;25.618;2023-08-06T08:40:32;27.00;72.80
68354;DHT22;55274;43.060;25.618;2023-08-06T08:42:59;26.90;70.10
68354;DHT22;55274;43.060;25.618;2023-08-06T08:45:27;26.70;70.50
68354;DHT22;55274;43.060;25.618;2023-08-06T08:47:54;26.40;76.30
68354;DHT22;55274;43.060;25.618;2023-08-06T08:50:21;26.30;76.40
68354;DHT22;55274;43.060;25.618;2023-08-06T08:52:47;26.20;77.10
68354;DHT22;55274;43.060;25.618;2023-08-06T08:55:15;26.20;76.60
68354;DHT22;55274;43.060;25.618;2023-08-06T08:57:42;26.10;77.10
68354;DHT22;55274;43.060;25.618;2023-08-06T09:00:09;26.00;77.10
68354;DHT22;55274;43.060;25.618;2023-08-06T09:02:36;25.90;77.50
68354;DHT22;55274;43.060;25.618;2023-08-06T09:05:05;25.90;77.60
68354;DHT22;55274;43.060;25.618;2023-08-06T09:07:42;25.80;80.20
68354;DHT22;55274;43.060;25.618;2023-08-06T09:10:11;25.80;79.80
68354;DHT22;55274;43.060;25.618;2023-08-06T09:12:39;25.80;78.60
68354;DHT22;55274;43.060;25.618;2023-08-06T09:15:06;25.80;78.00
68354;DHT22;55274;43.060;25.618;2023-08-06T09:17:32;25.70;78.50
68354;DHT22;55274;43.060;25.618;2023-08-06T09:19:57;25.80;78.00
68354;DHT22;55274;43.060;25.618;2023-08-06T09:22:24;25.80;79.20
68354;DHT22;55274;43.060;25.618;2023-08-06T09:24:51;25.90;79.10
68354;DHT22;55274;43.060;25.618;2023-08-06T09:27:17;26.10;79.60
68354;DHT22;55274;43.060;25.618;2023-08-06T09:29:44;26.20;78.90
68354;DHT22;55274;43.060;25.618;2023-08-06T09:32:11;26.60;78.20
68354;DHT22;55274;43.060;25.618;2023-08-06T09:34:46;26.90;77.00
68354;DHT22;55274;43.060;25.618;2023-08-06T09:37:12;27.00;75.30
68354;DHT22;55274;43.060;25.618;2023-08-06T09:39:39;27.00;74.50
68354;DHT22;55274;43.060;25.618;2023-08-06T09:42:06;27.00;74.80
68354;DHT22;55274;43.060;25.618;2023-08-06T09:44:33;27.00;75.30
68354;DHT22;55274;43.060;25.618;2023-08-06T09:47:01;27.10;73.70
68354;DHT22;55274;43.060;25.618;2023-08-06T09:49:40;27.00;74.50
68354;DHT22;55274;43.060;25.618;2023-08-06T09:52:11;27.00;74.50
68354;DHT22;55274;43.060;25.618;2023-08-06T09:54:38;27.10;74.40
68354;DHT22;55274;43.060;25.618;2023-08-06T09:57:05;27.70;72.70
68354;DHT22;55274;43.060;25.618;2023-08-06T09:59:32;28.20;71.80
68354;DHT22;55274;43.060;25.618;2023-08-06T10:01:58;28.60;70.40
68354;DHT22;55274;43.060;25.618;2023-08-06T10:04:25;28.60;70.30
68354;DHT22;55274;43.060;25.618;2023-08-06T10:06:51;28.50;69.20
68354;DHT22;55274;43.060;25.618;2023-08-06T10:09:17;28.20;69.40
68354;DHT22;55274;43.060;25.618;2023-08-06T10:11:50;27.90;69.30
68354;DHT22;55274;43.060;25.618;2023-08-06T10:14:32;27.70;69.90
68354;DHT22;55274;43.060;25.618;2023-08-06T10:16:59;27.60;70.50
68354;DHT22;55274;43.060;25.618;2023-08-06T10:19:25;27.30;71.00
68354;DHT22;55274;43.060;25.618;2023-08-06T10:22:14;27.10;71.90
68354;DHT22;55274;43.060;25.618;2023-08-06T10:24:51;27.10;72.20
68354;DHT22;55274;43.060;25.618;2023-08-06T10:27:31;27.10;72.70
68354;DHT22;55274;43.060;25.618;2023-08-06T10:30:36;26.90;71.30
68354;DHT22;55274;43.060;25.618;2023-08-06T10:33:05;26.70;71.90
68354;DHT22;55274;43.060;25.618;2023-08-06T10:35:45;26.80;72.20
68354;DHT22;55274;43.060;25.618;2023-08-06T10:45:51;26.10;73.60
68354;DHT22;55274;43.060;25.618;2023-08-06T10:48:38;26.00;74.00
68354;DHT22;55274;43.060;25.618;2023-08-06T10:51:08;25.90;73.90
68354;DHT22;55274;43.060;25.618;2023-08-06T10:53:34;25.80;74.50
68354;DHT22;55274;43.060;25.618;2023-08-06T10:56:01;25.70;74.90
68354;DHT22;55274;43.060;25.618;2023-08-06T10:58:32;25.60;75.90
68354;DHT22;55274;43.060;25.618;2023-08-06T11:00:58;25.50;77.10
68354;DHT22;55274;43.060;25.618;2023-08-06T11:03:26;25.50;77.60
68354;DHT22;55274;43.060;25.618;2023-08-06T11:05:52;25.10;79.00
68354;DHT22;55274;43.060;25.618;2023-08-06T11:08:27;24.80;81.50
68354;DHT22;55274;43.060;25.618;2023-08-06T11:10:53;24.70;84.50
68354;DHT22;55274;43.060;25.618;2023-08-06T11:13:20;24.40;85.60
68354;DHT22;55274;43.060;25.618;2023-08-06T11:15:46;24.10;85.70
68354;DHT22;55274;43.060;25.618;2023-08-06T11:18:12;23.90;87.40
68354;DHT22;55274;43.060;25.618;2023-08-06T11:20:39;23.80;87.40
68354;DHT22;55274;43.060;25.618;2023-08-06T11:23:05;23.70;88.30
68354;DHT22;55274;43.060;25.618;2023-08-06T11:25:35;23.60;88.50
68354;DHT22;55274;43.060;25.618;2023-08-06T11:28:01;23.40;88.40
68354;DHT22;55274;43.060;25.618;2023-08-06T11:30:27;23.50;89.20
68354;DHT22;55274;43.060;25.618;2023-08-06T11:32:53;23.60;89.60
68354;DHT22;55274;43.060;25.618;2023-08-06T11:35:19;23.40;90.60
68354;DHT22;55274;43.060;25.618;2023-08-06T11:37:45;23.10;92.10
68354;DHT22;55274;43.060;25.618;2023-08-06T11:40:12;23.00;92.40
68354;DHT22;55274;43.060;25.618;2023-08-06T11:42:40;23.10;92.20
68354;DHT22;55274;43.060;25.618;2023-08-06T11:45:06;23.10;93.10
68354;DHT22;55274;43.060;25.618;2023-08-06T11:47:34;23.10;93.10
68354;DHT22;55274;43.060;25.618;2023-08-06T11:50:00;23.10;92.90
68354;DHT22;55274;43.060;25.618;2023-08-06T11:52:26;23.10;92.90
68354;DHT22;55274;43.060;25.618;2023-08-06T11:57:32;23.00;93.00
68354;DHT22;55274;43.060;25.618;2023-08-06T12:00:08;23.00;93.20
68354;DHT22;55274;43.060;25.618;2023-08-06T12:02:34;22.90;94.20
68354;DHT22;55274;43.060;25.618;2023-08-06T12:05:11;22.90;94.60
68354;DHT22;55274;43.060;25.618;2023-08-06T12:07:42;22.90;94.50
68354;DHT22;55274;43.060;25.618;2023-08-06T12:10:08;22.90;95.40
68354;DHT22;55274;43.060;25.618;2023-08-06T12:12:35;23.00;94.40
68354;DHT22;55274;43.060;25.618;2023-08-06T12:15:01;23.10;93.70
68354;DHT22;55274;43.060;25.618;2023-08-06T12:17:27;23.20;95.10
68354;DHT22;55274;43.060;25.618;2023-08-06T12:19:53;23.10;95.60
68354;DHT22;55274;43.060;25.618;2023-08-06T12:22:19;23.20;94.80
68354;DHT22;55274;43.060;25.618;2023-08-06T12:24:46;23.20;95.20
68354;DHT22;55274;43.060;25.618;2023-08-06T12:27:12;23.30;95.00
68354;DHT22;55274;43.060;25.618;2023-08-06T12:29:45;23.50;93.80
68354;DHT22;55274;43.060;25.618;2023-08-06T12:32:11;23.70;92.40
68354;DHT22;55274;43.060;25.618;2023-08-06T12:34:41;23.90;89.00
68354;DHT22;55274;43.060;25.618;2023-08-06T12:37:08;24.20;89.30
68354;DHT22;55274;43.060;25.618;2023-08-06T12:39:35;24.70;88.30
68354;DHT22;55274;43.060;25.618;2023-08-06T12:42:02;25.00;88.00
68354;DHT22;55274;43.060;25.618;2023-08-06T12:44:28;25.20;88.30
68354;DHT22;55274;43.060;25.618;2023-08-06T12:46:54;25.70;87.80
68354;DHT22;55274;43.060;25.618;2023-08-06T12:49:20;26.00;85.60
68354;DHT22;55274;43.060;25.618;2023-08-06T12:51:49;26.10;84.20
68354;DHT22;55274;43.060;25.618;2023-08-06T12:54:17;26.30;83.40
68354;DHT22;55274;43.060;25.618;2023-08-06T12:56:43;26.30;83.10
68354;DHT22;55274;43.060;25.618;2023-08-06T12:59:09;26.30;83.10
68354;DHT22;55274;43.060;25.618;2023-08-06T13:01:35;26.40;83.50
68354;DHT22;55274;43.060;25.618;2023-08-06T13:04:00;26.50;82.00
68354;DHT22;55274;43.060;25.618;2023-08-06T13:06:26;26.40;83.50
68354;DHT22;55274;43.060;25.618;2023-08-06T13:08:52;26.40;84.50
68354;DHT22;55274;43.060;25.618;2023-08-06T13:11:18;26.40;85.60
68354;DHT22;55274;43.060;25.618;2023-08-06T13:13:45;26.60;83.10
68354;DHT22;55274;43.060;25.618;2023-08-06T13:16:10;26.70;81.60
68354;DHT22;55274;43.060;25.618;2023-08-06T13:18:36;26.90;80.10
68354;DHT22;55274;43.060;25.618;2023-08-06T13:21:02;27.10;78.10
68354;DHT22;55274;43.060;25.618;2023-08-06T13:23:28;27.20;77.80
68354;DHT22;55274;43.060;25.618;2023-08-06T13:25:53;27.40;77.10
68354;DHT22;55274;43.060;25.618;2023-08-06T13:28:19;27.70;76.20
68354;DHT22;55274;43.060;25.618;2023-08-06T13:30:45;27.80;76.00
68354;DHT22;55274;43.060;25.618;2023-08-06T13:33:11;27.90;74.60
68354;DHT22;55274;43.060;25.618;2023-08-06T13:35:38;27.80;74.60
68354;DHT22;55274;43.060;25.618;2023-08-06T13:38:04;27.70;73.90
68354;DHT22;55274;43.060;25.618;2023-08-06T13:40:32;27.70;74.50
68354;DHT22;55274;43.060;25.618;2023-08-06T13:42:58;27.80;75.40
68354;DHT22;55274;43.060;25.618;2023-08-06T13:45:23;27.90;74.10
68354;DHT22;55274;43.060;25.618;2023-08-06T13:47:49;27.90;73.10
68354;DHT22;55274;43.060;25.618;2023-08-06T13:50:15;27.90;72.70
68354;DHT22;55274;43.060;25.618;2023-08-06T13:52:41;27.90;72.30
68354;DHT22;55274;43.060;25.618;2023-08-06T13:55:07;27.90;73.60
68354;DHT22;55274;43.060;25.618;2023-08-06T13:57:34;28.00;73.10
68354;DHT22;55274;43.060;25.618;2023-08-06T14:00:01;28.20;73.50
68354;DHT22;55274;43.060;25.618;2023-08-06T14:02:26;28.10;72.20
68354;DHT22;55274;43.060;25.618;2023-08-06T14:04:55;28.10;71.70
68354;DHT22;55274;43.060;25.618;2023-08-06T14:07:21;28.10;72.20
68354;DHT22;55274;43.060;25.618;2023-08-06T14:09:47;28.20;71.70
68354;DHT22;55274;43.060;25.618;2023-08-06T14:12:13;28.10;71.20
68354;DHT22;55274;43.060;25.618;2023-08-06T14:14:39;28.00;72.50
68354;DHT22;55274;43.060;25.618;2023-08-06T14:17:05;28.00;73.10
68354;DHT22;55274;43.060;25.618;2023-08-06T14:19:31;27.90;72.80
68354;DHT22;55274;43.060;25.618;2023-08-06T14:21:57;27.80;71.90
68354;DHT22;55274;43.060;25.618;2023-08-06T14:24:23;27.70;72.20
68354;DHT22;55274;43.060;25.618;2023-08-06T14:26:49;27.50;74.40
68354;DHT22;55274;43.060;25.618;2023-08-06T14:29:14;27.50;74.20
68354;DHT22;55274;43.060;25.618;2023-08-06T14:31:40;27.60;74.40
68354;DHT22;55274;43.060;25.618;2023-08-06T14:34:06;27.80;73.90
68354;DHT22;55274;43.060;25.618;2023-08-06T14:36:32;27.80;71.90
68354;DHT22;55274;43.060;25.618;2023-08-06T14:38:58;27.90;71.30
68354;DHT22;55274;43.060;25.618;2023-08-06T14:41:24;28.00;71.00
68354;DHT22;55274;43.060;25.618;2023-08-06T14:43:50;28.00;71.20
68354;DHT22;55274;43.060;25.618;2023-08-06T14:46:16;28.10;70.50
68354;DHT22;55274;43.060;25.618;2023-08-06T14:48:42;28.00;71.70
68354;DHT22;55274;43.060;25.618;2023-08-06T14:51:10;27.90;71.50
68354;DHT22;55274;43.060;25.618;2023-08-06T14:53:36;28.00;72.80
68354;DHT22;55274;43.060;25.618;2023-08-06T14:56:01;28.00;71.80
68354;DHT22;55274;43.060;25.618;2023-08-06T14:58:27;28.00;73.20
68354;DHT22;55274;43.060;25.618;2023-08-06T15:00:53;27.90;72.40
68354;DHT22;55274;43.060;25.618;2023-08-06T15:03:19;28.00;73.10
68354;DHT22;55274;43.060;25.618;2023-08-06T15:05:47;28.00;71.40
68354;DHT22;55274;43.060;25.618;2023-08-06T15:08:14;28.00;72.70
68354;DHT22;55274;43.060;25.618;2023-08-06T15:10:39;28.00;72.90
68354;DHT22;55274;43.060;25.618;2023-08-06T15:13:05;28.10;72.60
68354;DHT22;55274;43.060;25.618;2023-08-06T15:15:32;28.10;71.80
68354;DHT22;55274;43.060;25.618;2023-08-06T15:17:58;28.10;71.20
68354;DHT22;55274;43.060;25.618;2023-08-06T15:20:24;28.20;72.20
68354;DHT22;55274;43.060;25.618;2023-08-06T15:22:50;28.10;71.00
68354;DHT22;55274;43.060;25.618;2023-08-06T15:25:16;28.00;70.40
68354;DHT22;55274;43.060;25.618;2023-08-06T15:27:42;28.00;70.90
68354;DHT22;55274;43.060;25.618;2023-08-06T15:30:08;28.00;70.50
68354;DHT22;55274;43.060;25.618;2023-08-06T15:32:34;27.90;69.60